createdAt,value
2017-10-27T00:01:25.549Z,24.50
2017-10-27T00:03:51.917Z,27.03
2017-10-27T00:06:18.419Z,27.83
2017-10-27T00:08:44.845Z,26.67
2017-10-27T00:11:12.035Z,22.00
2017-10-27T00:13:38.431Z,27.53
2017-10-27T00:16:04.865Z,23.43
2017-10-27T00:18:31.301Z,21.03
2017-10-27T00:20:57.746Z,23.93
2017-10-27T00:23:24.171Z,25.00
2017-10-27T00:25:50.605Z,25.20
2017-10-27T00:28:17.756Z,35.20
2017-10-27T00:30:44.200Z,40.80
2017-10-27T00:33:10.626Z,45.17
2017-10-27T00:35:37.172Z,44.57
2017-10-27T00:38:03.572Z,46.87
2017-10-27T00:40:29.967Z,43.30
2017-10-27T00:42:56.365Z,37.10
2017-10-27T00:45:23.626Z,36.80
2017-10-27T00:47:50.024Z,38.20
2017-10-27T00:50:16.491Z,41.70
2017-10-27T00:52:42.832Z,37.73
2017-10-27T00:55:09.256Z,43.03
2017-10-27T00:57:35.690Z,34.10
2017-10-27T01:00:02.133Z,33.53
2017-10-27T01:02:29.390Z,37.57
2017-10-27T01:04:56.020Z,39.90
2017-10-27T01:07:22.944Z,41.43
2017-10-27T01:09:49.411Z,34.97
2017-10-27T01:12:15.837Z,34.20
2017-10-27T01:14:42.278Z,34.17
2017-10-27T01:17:08.712Z,30.10
2017-10-27T01:19:35.957Z,38.47
2017-10-27T01:22:02.278Z,31.63
2017-10-27T01:24:28.724Z,31.20
2017-10-27T01:26:55.168Z,32.43
2017-10-27T01:29:21.531Z,28.10
2017-10-27T01:31:48.038Z,31.77
2017-10-27T01:34:14.432Z,26.17
2017-10-27T01:36:41.726Z,36.00
2017-10-27T01:39:08.153Z,25.83
2017-10-27T01:41:34.587Z,30.07
2017-10-27T01:44:00.920Z,35.90
2017-10-27T01:46:27.354Z,29.20
2017-10-27T01:48:53.797Z,28.47
2017-10-27T01:51:20.224Z,27.20
2017-10-27T01:53:47.453Z,28.37
2017-10-27T01:56:13.920Z,25.80
2017-10-27T01:58:40.459Z,23.70
2017-10-27T02:01:06.891Z,25.40
2017-10-27T02:03:33.255Z,34.50
2017-10-27T02:05:59.762Z,29.10
2017-10-27T02:08:26.121Z,23.33
2017-10-27T02:10:53.343Z,26.67
2017-10-27T02:13:19.776Z,28.00
2017-10-27T02:15:46.208Z,22.93
2017-10-27T02:18:12.643Z,27.50
2017-10-27T02:20:38.976Z,31.47
2017-10-27T02:23:05.348Z,29.50
2017-10-27T02:25:31.752Z,25.37
2017-10-27T02:27:59.006Z,26.03
2017-10-27T02:30:25.441Z,28.00
2017-10-27T02:32:51.867Z,26.27
2017-10-27T02:35:18.199Z,27.00
2017-10-27T02:37:44.633Z,24.10
2017-10-27T02:40:11.003Z,24.23
2017-10-27T02:42:37.511Z,23.87
2017-10-27T02:45:04.622Z,25.83
2017-10-27T02:47:31.027Z,30.73
2017-10-27T02:49:57.420Z,31.40
2017-10-27T02:52:23.856Z,23.30
2017-10-27T02:54:50.393Z,23.00
2017-10-27T02:57:16.836Z,29.83
2017-10-27T02:59:43.267Z,22.10
2017-10-27T03:02:10.455Z,23.60
2017-10-27T03:04:36.848Z,23.40
2017-10-27T03:07:03.291Z,21.47
2017-10-27T03:09:29.694Z,30.23
2017-10-27T03:11:56.161Z,28.00
2017-10-27T03:14:22.588Z,29.77
2017-10-27T03:16:49.025Z,25.93
2017-10-27T03:19:16.285Z,26.60
2017-10-27T03:21:42.648Z,23.40
2017-10-27T03:24:09.158Z,31.80
2017-10-27T03:26:35.580Z,27.20
2017-10-27T03:29:02.022Z,23.73
2017-10-27T03:31:28.419Z,25.97
2017-10-27T03:33:54.884Z,27.80
2017-10-27T03:36:22.036Z,26.30
2017-10-27T03:38:48.633Z,29.87
2017-10-27T03:41:15.048Z,24.23
2017-10-27T03:43:41.441Z,29.33
2017-10-27T03:46:07.877Z,51.03
2017-10-27T03:48:34.391Z,31.80
2017-10-27T03:51:00.868Z,28.40
2017-10-27T03:53:28.009Z,23.20
2017-10-27T03:55:54.435Z,24.30
2017-10-27T03:58:20.879Z,28.70
2017-10-27T04:00:47.201Z,31.80
2017-10-27T04:03:13.535Z,31.57
2017-10-27T04:05:39.979Z,24.10
2017-10-27T04:08:06.414Z,32.47
2017-10-27T04:10:33.556Z,26.40
2017-10-27T04:12:59.927Z,30.53
2017-10-27T04:15:26.535Z,32.83
2017-10-27T04:17:52.956Z,35.53
2017-10-27T04:20:19.396Z,29.67
2017-10-27T04:22:45.808Z,36.80
2017-10-27T04:25:12.266Z,34.23
2017-10-27T04:27:39.521Z,30.33
2017-10-27T04:30:05.955Z,37.77
2017-10-27T04:32:32.398Z,38.77
2017-10-27T04:34:58.818Z,33.60
2017-10-27T04:37:25.260Z,35.87
2017-10-27T04:39:51.696Z,31.97
2017-10-27T04:42:18.098Z,33.90
2017-10-27T04:44:45.328Z,35.23
2017-10-27T04:47:12.432Z,28.20
2017-10-27T04:49:38.875Z,29.40
2017-10-27T04:52:05.804Z,33.20
2017-10-27T04:54:32.280Z,33.47
2017-10-27T04:56:58.683Z,45.03
2017-10-27T04:59:25.073Z,39.30
2017-10-27T05:01:52.277Z,41.43
2017-10-27T05:04:19.737Z,31.50
2017-10-27T05:06:46.610Z,29.00
2017-10-27T05:09:13.323Z,24.93
2017-10-27T05:11:39.709Z,35.70
2017-10-27T05:14:06.127Z,31.20
2017-10-27T05:16:32.893Z,29.60
2017-10-27T05:18:59.363Z,28.40
2017-10-27T05:21:25.805Z,43.80
2017-10-27T05:23:52.257Z,46.80
2017-10-27T05:26:18.664Z,50.80
2017-10-27T05:28:45.036Z,49.27
2017-10-27T05:31:11.547Z,46.33
2017-10-27T05:33:38.082Z,49.87
2017-10-27T05:36:04.516Z,49.97
2017-10-27T05:38:31.250Z,44.20
2017-10-27T05:40:57.619Z,65.30
2017-10-27T05:43:24.125Z,60.93
2017-10-27T05:45:50.554Z,49.27
2017-10-27T05:48:16.995Z,42.93
2017-10-27T05:50:43.523Z,44.43
2017-10-27T05:53:09.965Z,44.33
2017-10-27T05:55:36.495Z,56.27
2017-10-27T05:58:03.039Z,43.03
2017-10-27T06:00:30.408Z,60.17
2017-10-27T06:02:56.825Z,50.70
2017-10-27T06:05:23.465Z,58.57
2017-10-27T06:07:49.898Z,55.90
2017-10-27T06:10:16.283Z,67.17
2017-10-27T06:12:42.807Z,39.63
2017-10-27T06:15:09.296Z,38.67
2017-10-27T06:17:35.983Z,41.90
2017-10-27T06:20:02.453Z,52.13
2017-10-27T06:22:28.944Z,48.17
2017-10-27T06:24:55.541Z,43.00
2017-10-27T06:27:21.957Z,56.17
2017-10-27T06:29:48.433Z,72.80
2017-10-27T06:32:15.042Z,68.27
2017-10-27T06:34:41.704Z,54.80
2017-10-27T06:37:08.140Z,65.73
2017-10-27T06:39:35.321Z,49.17
2017-10-27T06:42:02.035Z,51.37
2017-10-27T06:44:28.445Z,46.97
2017-10-27T06:46:55.252Z,50.93
2017-10-27T06:49:21.614Z,55.20
2017-10-27T06:51:48.087Z,52.40
2017-10-27T06:54:14.506Z,51.03
2017-10-27T06:56:41.458Z,41.07
2017-10-27T06:59:07.808Z,34.87
2017-10-27T07:01:34.378Z,43.90
2017-10-27T07:04:01.083Z,39.47
2017-10-27T07:06:27.916Z,43.43
2017-10-27T07:08:54.352Z,42.60
2017-10-27T07:11:20.998Z,41.17
2017-10-27T07:13:47.424Z,54.27
2017-10-27T07:16:13.961Z,28.33
2017-10-27T07:18:40.425Z,36.57
2017-10-27T07:21:07.012Z,28.53
2017-10-27T07:23:33.479Z,37.10
2017-10-27T07:26:00.007Z,35.83
2017-10-27T07:28:26.451Z,33.00
2017-10-27T07:30:52.991Z,43.43
2017-10-27T07:33:19.696Z,41.03
2017-10-27T07:35:46.267Z,48.93
2017-10-27T07:38:12.702Z,46.20
2017-10-27T07:40:39.683Z,42.10
2017-10-27T07:43:06.185Z,40.40
2017-10-27T07:45:32.898Z,46.63
2017-10-27T07:47:59.354Z,47.03
2017-10-27T07:50:26.208Z,39.57
2017-10-27T07:52:53.042Z,32.20
2017-10-27T07:55:19.515Z,36.13
2017-10-27T07:57:46.325Z,26.70
2017-10-27T08:00:13.301Z,31.03
2017-10-27T08:02:40.520Z,32.27
2017-10-27T08:05:07.118Z,37.03
2017-10-27T08:07:34.347Z,27.00
2017-10-27T08:10:00.747Z,31.77
2017-10-27T08:12:27.600Z,36.47
2017-10-27T08:14:54.099Z,24.13
2017-10-27T08:17:20.871Z,24.10
2017-10-27T08:19:47.922Z,38.63
2017-10-27T08:22:14.457Z,32.63
2017-10-27T08:24:40.892Z,38.03
2017-10-27T08:27:07.257Z,35.17
2017-10-27T08:29:33.770Z,45.83
2017-10-27T08:32:00.272Z,34.30
2017-10-27T08:34:27.145Z,48.83
2017-10-27T08:36:53.582Z,32.37
2017-10-27T08:39:20.206Z,32.03
2017-10-27T08:41:47.746Z,40.60
2017-10-27T08:44:14.314Z,42.50
2017-10-27T08:46:40.749Z,43.77
2017-10-27T08:49:07.744Z,41.33
2017-10-27T08:51:34.139Z,38.37
2017-10-27T08:54:00.566Z,25.90
2017-10-27T08:56:27.993Z,32.13
2017-10-27T08:58:54.467Z,29.83
2017-10-27T09:01:20.979Z,30.90
2017-10-27T09:03:47.412Z,28.20
2017-10-27T09:06:14.173Z,27.87
2017-10-27T09:08:40.607Z,28.03
2017-10-27T09:11:07.114Z,22.90
2017-10-27T09:13:34.296Z,22.10
2017-10-27T09:16:00.743Z,27.17
2017-10-27T09:18:27.098Z,19.70
2017-10-27T09:20:53.535Z,11.33
2017-10-27T09:23:20.237Z,19.87
2017-10-27T09:25:46.675Z,12.47
2017-10-27T09:28:13.151Z,13.20
2017-10-27T09:30:39.964Z,14.37
2017-10-27T09:33:07.421Z,12.40
2017-10-27T09:35:33.953Z,13.53
2017-10-27T09:38:00.794Z,19.53
2017-10-27T09:40:27.340Z,10.83
2017-10-27T09:42:53.739Z,9.40
2017-10-27T09:45:20.918Z,12.03
2017-10-27T09:47:47.712Z,15.93
2017-10-27T09:50:14.180Z,9.70
2017-10-27T09:52:41.222Z,15.47
2017-10-27T09:55:07.665Z,7.70
2017-10-27T09:57:34.133Z,8.70
2017-10-27T10:00:00.550Z,9.20
2017-10-27T10:02:26.984Z,10.27
2017-10-27T10:04:54.021Z,8.87
2017-10-27T10:07:22.241Z,5.10
2017-10-27T10:09:48.754Z,7.47
2017-10-27T10:12:15.865Z,6.43
2017-10-27T10:14:42.268Z,39.37
2017-10-27T10:17:08.776Z,8.57
2017-10-27T10:19:35.611Z,6.80
2017-10-27T10:22:02.171Z,6.07
2017-10-27T10:24:28.788Z,6.63
2017-10-27T10:26:55.538Z,4.97
2017-10-27T10:29:22.070Z,6.63
2017-10-27T10:31:48.503Z,4.63
2017-10-27T10:34:15.039Z,8.23
2017-10-27T10:36:41.781Z,4.83
2017-10-27T10:39:08.151Z,6.10
2017-10-27T10:41:34.860Z,5.53
2017-10-27T10:44:01.422Z,5.23
2017-10-27T10:46:27.828Z,7.03
2017-10-27T10:48:54.786Z,5.43
2017-10-27T10:51:21.305Z,13.57
2017-10-27T10:53:47.769Z,7.27
2017-10-27T10:56:14.702Z,9.73
2017-10-27T10:58:41.238Z,11.50
2017-10-27T11:01:07.777Z,5.93
2017-10-27T11:03:34.611Z,6.13
2017-10-27T11:06:00.984Z,5.83
2017-10-27T11:08:27.472Z,5.33
2017-10-27T11:10:55.352Z,5.37
2017-10-27T11:13:21.718Z,4.90
2017-10-27T11:15:48.199Z,5.17
2017-10-27T11:18:14.629Z,8.20
2017-10-27T11:20:41.612Z,6.37
2017-10-27T11:23:08.222Z,7.80
2017-10-27T11:25:34.674Z,4.37
2017-10-27T11:28:01.763Z,4.20
2017-10-27T11:30:28.198Z,6.03
2017-10-27T11:32:54.602Z,6.00
2017-10-27T11:35:21.223Z,3.80
2017-10-27T11:37:47.667Z,8.47
2017-10-27T11:40:14.154Z,3.83
2017-10-27T11:42:40.947Z,4.20
2017-10-27T11:45:07.381Z,8.27
2017-10-27T11:47:33.730Z,3.97
2017-10-27T11:50:00.455Z,8.80
2017-10-27T11:52:26.898Z,4.67
2017-10-27T11:54:53.324Z,4.10
2017-10-27T11:57:20.067Z,4.37
2017-10-27T11:59:46.521Z,6.67
2017-10-27T12:02:12.990Z,3.90
2017-10-27T12:04:39.372Z,3.83
2017-10-27T12:07:05.805Z,3.93
2017-10-27T12:09:32.371Z,3.90
2017-10-27T12:11:59.115Z,3.90
2017-10-27T12:14:25.621Z,4.20
2017-10-27T12:16:52.251Z,4.47
2017-10-27T12:19:18.663Z,3.53
2017-10-27T12:21:45.086Z,3.83
2017-10-27T12:24:12.331Z,3.60
2017-10-27T12:26:38.831Z,3.50
2017-10-27T12:29:05.254Z,4.00
2017-10-27T12:31:31.731Z,3.50
2017-10-27T12:33:58.227Z,3.60
2017-10-27T12:36:24.698Z,3.30
2017-10-27T12:38:51.329Z,3.53
2017-10-27T12:41:17.756Z,6.30
2017-10-27T12:43:44.280Z,3.93
2017-10-27T12:46:11.229Z,3.70
2017-10-27T12:48:37.663Z,3.63
2017-10-27T12:51:04.200Z,3.87
2017-10-27T12:53:30.562Z,3.77
2017-10-27T12:55:57.051Z,4.00
2017-10-27T12:58:23.494Z,3.17
2017-10-27T13:00:50.052Z,3.33
2017-10-27T13:03:16.775Z,3.73
2017-10-27T13:05:43.175Z,3.77
2017-10-27T13:08:09.653Z,3.33
2017-10-27T13:10:36.190Z,11.67
2017-10-27T13:13:02.681Z,3.37
2017-10-27T13:15:29.256Z,5.03
2017-10-27T13:17:56.101Z,3.50
2017-10-27T13:20:22.537Z,4.10
2017-10-27T13:22:48.870Z,4.83
2017-10-27T13:25:15.310Z,4.63
2017-10-27T13:27:41.707Z,7.10
2017-10-27T13:30:08.581Z,10.53
2017-10-27T13:32:35.560Z,5.70
2017-10-27T13:35:02.165Z,5.93
2017-10-27T13:37:28.607Z,9.03
2017-10-27T13:39:55.059Z,4.30
2017-10-27T13:42:21.875Z,4.50
2017-10-27T13:44:48.323Z,8.83
2017-10-27T13:47:14.758Z,6.93
2017-10-27T13:49:41.602Z,3.70
2017-10-27T13:52:08.206Z,5.60
2017-10-27T13:54:34.676Z,6.60
2017-10-27T13:57:01.039Z,7.80
2017-10-27T13:59:27.512Z,6.07
2017-10-27T14:01:54.494Z,5.70
2017-10-27T14:04:20.928Z,16.33
2017-10-27T14:06:47.561Z,14.13
2017-10-27T14:09:13.994Z,13.17
2017-10-27T14:11:40.536Z,9.30
2017-10-27T14:14:07.685Z,15.10
2017-10-27T14:16:34.629Z,18.53
2017-10-27T14:19:01.652Z,10.47
2017-10-27T14:21:28.567Z,21.40
2017-10-27T14:23:55.134Z,6.00
2017-10-27T14:26:21.598Z,7.20
2017-10-27T14:28:48.041Z,12.20
2017-10-27T14:31:15.072Z,8.80
2017-10-27T14:33:41.626Z,18.53
2017-10-27T14:36:08.064Z,19.27
2017-10-27T14:38:34.700Z,17.43
2017-10-27T14:41:01.167Z,43.93
2017-10-27T14:43:28.124Z,29.13
2017-10-27T14:45:55.076Z,24.23
2017-10-27T14:48:21.563Z,38.80
2017-10-27T14:50:47.988Z,23.63
2017-10-27T14:53:14.536Z,36.40
2017-10-27T14:55:40.961Z,28.30
2017-10-27T14:58:07.395Z,48.23
2017-10-27T15:00:34.011Z,32.67
2017-10-27T15:03:00.572Z,40.00
2017-10-27T15:05:27.011Z,40.43
2017-10-27T15:07:53.749Z,36.37
2017-10-27T15:10:20.222Z,68.33
2017-10-27T15:12:46.729Z,67.53
2017-10-27T15:15:13.361Z,51.00
2017-10-27T15:17:39.804Z,49.57
2017-10-27T15:20:06.167Z,41.70
2017-10-27T15:22:32.561Z,41.20
2017-10-27T15:24:58.997Z,63.87
2017-10-27T15:27:25.431Z,24.53
2017-10-27T15:29:52.072Z,57.73
2017-10-27T15:32:18.505Z,58.53
2017-10-27T15:34:44.939Z,63.83
2017-10-27T15:37:11.377Z,49.90
2017-10-27T15:39:37.742Z,43.03
2017-10-27T15:42:04.253Z,45.00
2017-10-27T15:44:31.282Z,45.53
2017-10-27T15:46:57.699Z,58.23
2017-10-27T15:49:24.172Z,52.40
2017-10-27T15:51:50.537Z,63.77
2017-10-27T15:54:16.934Z,56.20
2017-10-27T15:56:43.344Z,60.37
2017-10-27T15:59:09.800Z,53.03
2017-10-27T16:01:37.055Z,77.97
2017-10-27T16:04:03.488Z,65.73
2017-10-27T16:06:29.860Z,62.27
2017-10-27T16:08:56.446Z,46.90
2017-10-27T16:11:23.414Z,68.67
2017-10-27T16:13:49.741Z,63.27
2017-10-27T16:16:16.224Z,61.30
2017-10-27T16:18:43.348Z,59.07
2017-10-27T16:21:09.847Z,61.93
2017-10-27T16:23:36.502Z,53.03
2017-10-27T16:26:07.630Z,54.23
2017-10-27T16:28:35.735Z,79.47
2017-10-27T16:31:03.115Z,77.37
2017-10-27T16:33:30.869Z,56.10
2017-10-27T16:36:06.715Z,54.07
2017-10-27T16:38:34.742Z,64.87
2017-10-27T16:41:05.309Z,54.57
2017-10-27T17:02:33.456Z,55.10
2017-10-27T18:15:30.893Z,28.90
2017-10-27T18:23:21.564Z,25.17
2017-10-27T18:28:57.530Z,32.37
2017-10-27T18:34:02.526Z,24.33
2017-10-27T18:41:46.114Z,45.00
2017-10-27T18:44:18.953Z,40.50
2017-10-27T18:46:54.145Z,35.00
2017-10-27T18:52:07.608Z,39.00
2017-10-27T18:57:19.649Z,46.17
2017-10-27T18:59:52.059Z,25.13
2017-10-27T19:04:54.124Z,33.47
2017-10-27T19:07:26.134Z,38.17
2017-10-27T19:12:35.426Z,45.20
2017-10-27T19:17:40.859Z,59.37
2017-10-27T19:20:13.703Z,37.37
2017-10-27T19:25:22.330Z,48.63
2017-10-27T19:27:48.819Z,44.47
2017-10-27T19:30:15.287Z,42.40
2017-10-27T19:32:41.731Z,41.97
2017-10-27T19:35:08.148Z,47.33
2017-10-27T19:37:34.582Z,39.10
2017-10-27T19:40:01.017Z,34.70
2017-10-27T19:42:27.563Z,50.77
2017-10-27T19:44:54.612Z,38.03
2017-10-27T19:47:21.058Z,47.70
2017-10-27T19:49:47.473Z,44.70
2017-10-27T19:52:13.907Z,35.20
2017-10-27T19:54:40.351Z,59.97
2017-10-27T19:57:06.777Z,23.03
2017-10-27T19:59:33.221Z,27.47
2017-10-27T20:02:00.445Z,21.00
2017-10-27T20:04:26.904Z,22.57
2017-10-27T20:06:53.338Z,24.40
2017-10-27T20:09:19.769Z,19.70
2017-10-27T20:11:46.205Z,19.80
2017-10-27T20:14:12.652Z,24.37
2017-10-27T20:16:39.019Z,23.27
2017-10-27T20:19:06.292Z,20.30
2017-10-27T20:21:32.776Z,18.70
2017-10-27T20:23:59.198Z,20.47
2017-10-27T20:26:25.632Z,23.80
2017-10-27T20:28:52.006Z,21.90
2017-10-27T20:31:18.539Z,22.37
2017-10-27T20:33:44.937Z,25.03
2017-10-27T20:36:12.198Z,26.00
2017-10-27T20:38:38.623Z,33.10
2017-10-27T20:41:05.062Z,35.07
2017-10-27T20:43:31.494Z,32.77
2017-10-27T20:45:57.910Z,38.90
2017-10-27T20:48:24.365Z,35.00
2017-10-27T20:50:50.806Z,37.77
2017-10-27T20:53:17.950Z,33.10
2017-10-27T20:55:44.394Z,39.03
2017-10-27T20:58:10.827Z,44.47
2017-10-27T21:00:37.254Z,37.20
2017-10-27T21:03:03.698Z,46.17
2017-10-27T21:05:30.172Z,43.80
2017-10-27T21:07:56.564Z,40.80
2017-10-27T21:10:23.812Z,44.13
2017-10-27T21:12:50.256Z,55.03
2017-10-27T21:15:16.708Z,49.60
2017-10-27T21:17:43.228Z,49.27
2017-10-27T21:20:09.591Z,44.57
2017-10-27T21:22:35.947Z,49.17
2017-10-27T21:25:02.443Z,50.00
2017-10-27T21:27:29.575Z,43.97
2017-10-27T21:29:56.032Z,46.53
2017-10-27T21:32:22.446Z,47.83
2017-10-27T21:34:48.772Z,50.43
2017-10-27T21:37:15.210Z,45.53
2017-10-27T21:39:41.645Z,44.90
2017-10-27T21:42:08.081Z,68.93
2017-10-27T21:44:35.332Z,46.33
2017-10-27T21:47:01.712Z,49.33
2017-10-27T21:49:28.099Z,47.90
2017-10-27T21:51:54.545Z,43.67
2017-10-27T21:54:20.969Z,47.73
2017-10-27T21:56:47.407Z,50.23
2017-10-27T21:59:13.849Z,43.87
2017-10-27T22:01:41.103Z,45.47
2017-10-27T22:04:07.529Z,46.10
2017-10-27T22:06:33.962Z,32.07
2017-10-27T22:09:00.336Z,34.20
2017-10-27T22:11:26.732Z,28.20
2017-10-27T22:13:53.135Z,22.90
2017-10-27T22:16:19.601Z,32.43
2017-10-27T22:18:46.650Z,16.47
2017-10-27T22:21:13.086Z,17.27
2017-10-27T22:23:39.528Z,23.93
2017-10-27T22:26:05.956Z,17.30
2017-10-27T22:28:32.386Z,17.13
2017-10-27T22:30:58.821Z,18.70
2017-10-27T22:33:25.265Z,17.83
2017-10-27T22:35:52.408Z,16.73
2017-10-27T22:38:18.868Z,18.80
2017-10-27T22:40:45.281Z,17.83
2017-10-27T22:43:11.679Z,15.40
2017-10-27T22:45:38.147Z,18.03
2017-10-27T22:48:04.589Z,11.90
2017-10-27T22:50:31.016Z,13.37
2017-10-27T22:52:58.141Z,15.63
2017-10-27T22:55:24.594Z,16.03
2017-10-27T22:57:51.035Z,14.17
2017-10-27T23:00:17.481Z,15.50
2017-10-27T23:02:43.804Z,21.53
2017-10-27T23:05:10.136Z,13.90
2017-10-27T23:07:36.580Z,11.90
2017-10-27T23:10:03.732Z,13.13
2017-10-27T23:12:30.157Z,14.60
2017-10-27T23:14:56.593Z,13.33
2017-10-27T23:17:23.036Z,14.33
2017-10-27T23:19:49.360Z,11.27
2017-10-27T23:22:15.804Z,11.20
2017-10-27T23:24:42.250Z,10.87
2017-10-27T23:27:09.482Z,14.70
2017-10-27T23:29:35.803Z,12.37
2017-10-27T23:32:02.120Z,9.80
2017-10-27T23:34:28.582Z,8.73
2017-10-27T23:36:55.017Z,9.47
2017-10-27T23:39:21.452Z,8.90
2017-10-27T23:41:47.793Z,10.40
2017-10-27T23:44:15.142Z,8.50
2017-10-27T23:46:41.549Z,11.80
2017-10-27T23:49:08.011Z,11.20
2017-10-27T23:51:34.445Z,11.93
2017-10-27T23:54:00.879Z,13.00
2017-10-27T23:56:27.314Z,10.63
2017-10-27T23:58:53.750Z,17.50
